sensor_id;sensor_type;location;lat;lon;timestamp;pressure;altitude;pressure_sealevel;temperature;humidity
68380;BME280;57711;53.196;19.638;2022-10-31T00:00:59;100528.21;;;10.70;72.25
68380;BME280;57711;53.196;19.638;2022-10-31T00:03:38;100531.39;;;10.71;71.99
68380;BME280;57711;53.196;19.638;2022-10-31T00:06:05;100532.94;;;10.72;72.10
68380;BME280;57711;53.196;19.638;2022-10-31T00:08:32;100529.36;;;10.72;72.03
68380;BME280;57711;53.196;19.638;2022-10-31T00:10:59;100530.87;;;10.71;72.07
68380;BME280;57711;53.196;19.638;2022-10-31T00:13:26;100531.89;;;10.70;72.07
68380;BME280;57711;53.196;19.638;2022-10-31T00:15:53;100532.81;;;10.67;71.95
68380;BME280;57711;53.196;19.638;2022-10-31T00:18:21;100533.10;;;10.64;72.05
68380;BME280;57711;53.196;19.638;2022-10-31T00:20:48;100535.98;;;10.60;72.22
68380;BME280;57711;53.196;19.638;2022-10-31T00:23:15;100537.96;;;10.57;71.92
68380;BME280;57711;53.196;19.638;2022-10-31T00:25:42;100538.05;;;10.59;72.01
68380;BME280;57711;53.196;19.638;2022-10-31T00:28:10;100536.95;;;10.59;71.95
68380;BME280;57711;53.196;19.638;2022-10-31T00:30:38;100537.27;;;10.60;72.02
68380;BME280;57711;53.196;19.638;2022-10-31T00:33:05;100531.84;;;10.60;72.13
68380;BME280;57711;53.196;19.638;2022-10-31T00:35:32;100531.33;;;10.60;71.86
68380;BME280;57711;53.196;19.638;2022-10-31T00:38:00;100531.63;;;10.58;72.05
68380;BME280;57711;53.196;19.638;2022-10-31T00:40:27;100527.10;;;10.56;72.10
68380;BME280;57711;53.196;19.638;2022-10-31T00:42:54;100527.23;;;10.54;72.02
68380;BME280;57711;53.196;19.638;2022-10-31T00:45:22;100526.98;;;10.51;72.05
68380;BME280;57711;53.196;19.638;2022-10-31T00:47:50;100527.19;;;10.49;71.82
68380;BME280;57711;53.196;19.638;2022-10-31T00:50:17;100531.48;;;10.47;71.91
68380;BME280;57711;53.196;19.638;2022-10-31T00:52:44;100531.98;;;10.47;71.97
68380;BME280;57711;53.196;19.638;2022-10-31T00:55:11;100526.61;;;10.49;71.85
68380;BME280;57711;53.196;19.638;2022-10-31T00:57:39;100525.89;;;10.49;71.93
68380;BME280;57711;53.196;19.638;2022-10-31T01:00:06;100522.48;;;10.49;71.90
68380;BME280;57711;53.196;19.638;2022-10-31T01:02:34;100521.80;;;10.48;72.04
68380;BME280;57711;53.196;19.638;2022-10-31T01:05:01;100519.38;;;10.47;71.91
68380;BME280;57711;53.196;19.638;2022-10-31T01:07:28;100519.26;;;10.46;71.91
68380;BME280;57711;53.196;19.638;2022-10-31T01:09:56;100520.73;;;10.46;71.93
68380;BME280;57711;53.196;19.638;2022-10-31T01:12:25;100519.85;;;10.46;71.87
68380;BME280;57711;53.196;19.638;2022-10-31T01:14:52;100515.44;;;10.46;71.99
68380;BME280;57711;53.196;19.638;2022-10-31T01:17:19;100513.51;;;10.48;72.13
68380;BME280;57711;53.196;19.638;2022-10-31T01:19:46;100517.36;;;10.51;71.98
68380;BME280;57711;53.196;19.638;2022-10-31T01:22:13;100513.70;;;10.52;72.07
68380;BME280;57711;53.196;19.638;2022-10-31T01:24:40;100511.58;;;10.49;72.20
68380;BME280;57711;53.196;19.638;2022-10-31T01:27:07;100517.45;;;10.50;72.21
68380;BME280;57711;53.196;19.638;2022-10-31T01:29:34;100518.82;;;10.51;72.18
68380;BME280;57711;53.196;19.638;2022-10-31T01:32:02;100521.36;;;10.51;72.14
68380;BME280;57711;53.196;19.638;2022-10-31T01:34:29;100521.61;;;10.50;72.11
68380;BME280;57711;53.196;19.638;2022-10-31T01:36:56;100516.93;;;10.52;72.09
68380;BME280;57711;53.196;19.638;2022-10-31T01:39:23;100514.55;;;10.54;72.35
68380;BME280;57711;53.196;19.638;2022-10-31T01:41:52;100517.68;;;10.56;72.15
68380;BME280;57711;53.196;19.638;2022-10-31T01:46:56;100525.50;;;10.60;72.17
68380;BME280;57711;53.196;19.638;2022-10-31T01:52:06;100526.55;;;10.62;72.20
68380;BME280;57711;53.196;19.638;2022-10-31T01:54:40;100528.36;;;10.63;72.25
68380;BME280;57711;53.196;19.638;2022-10-31T01:57:12;100525.35;;;10.62;72.23
68380;BME280;57711;53.196;19.638;2022-10-31T01:59:42;100528.99;;;10.61;72.23
68380;BME280;57711;53.196;19.638;2022-10-31T02:02:11;100530.27;;;10.61;72.17
68380;BME280;57711;53.196;19.638;2022-10-31T02:04:40;100532.90;;;10.63;72.09
68380;BME280;57711;53.196;19.638;2022-10-31T02:07:14;100535.38;;;10.63;71.99
68380;BME280;57711;53.196;19.638;2022-10-31T02:09:44;100534.61;;;10.61;71.80
68380;BME280;57711;53.196;19.638;2022-10-31T02:12:13;100538.19;;;10.57;71.82
68380;BME280;57711;53.196;19.638;2022-10-31T02:14:41;100538.89;;;10.55;71.78
68380;BME280;57711;53.196;19.638;2022-10-31T02:17:09;100540.77;;;10.54;72.04
68380;BME280;57711;53.196;19.638;2022-10-31T02:19:52;100544.48;;;10.53;72.07
68380;BME280;57711;53.196;19.638;2022-10-31T02:33:46;100560.68;;;10.44;72.02
68380;BME280;57711;53.196;19.638;2022-10-31T02:41:40;100558.44;;;10.49;72.07
68380;BME280;57711;53.196;19.638;2022-10-31T02:47:27;100559.61;;;10.52;72.06
68380;BME280;57711;53.196;19.638;2022-10-31T02:50:06;100564.85;;;10.50;72.05
68380;BME280;57711;53.196;19.638;2022-10-31T02:52:37;100565.34;;;10.48;72.10
68380;BME280;57711;53.196;19.638;2022-10-31T03:00:41;100564.52;;;10.43;71.95
68380;BME280;57711;53.196;19.638;2022-10-31T03:08:52;100576.19;;;10.48;71.99
68380;BME280;57711;53.196;19.638;2022-10-31T03:11:24;100580.86;;;10.48;71.80
68380;BME280;57711;53.196;19.638;2022-10-31T03:14:05;100582.75;;;10.48;71.81
68380;BME280;57711;53.196;19.638;2022-10-31T03:16:52;100581.55;;;10.49;71.95
68380;BME280;57711;53.196;19.638;2022-10-31T03:19:23;100583.11;;;10.50;72.11
68380;BME280;57711;53.196;19.638;2022-10-31T03:22:01;100582.08;;;10.49;72.17
68380;BME280;57711;53.196;19.638;2022-10-31T03:24:37;100586.52;;;10.52;72.07
68380;BME280;57711;53.196;19.638;2022-10-31T03:27:07;100593.77;;;10.56;72.11
68380;BME280;57711;53.196;19.638;2022-10-31T03:29:37;100592.55;;;10.58;72.18
68380;BME280;57711;53.196;19.638;2022-10-31T03:32:20;100595.59;;;10.56;72.13
68380;BME280;57711;53.196;19.638;2022-10-31T03:34:55;100601.60;;;10.60;72.09
68380;BME280;57711;53.196;19.638;2022-10-31T03:37:25;100608.37;;;10.62;72.14
68380;BME280;57711;53.196;19.638;2022-10-31T03:39:55;100610.86;;;10.62;72.12
68380;BME280;57711;53.196;19.638;2022-10-31T03:42:25;100611.36;;;10.64;72.34
68380;BME280;57711;53.196;19.638;2022-10-31T03:45:00;100616.22;;;10.67;72.20
68380;BME280;57711;53.196;19.638;2022-10-31T03:47:29;100620.80;;;10.68;72.25
68380;BME280;57711;53.196;19.638;2022-10-31T03:49:56;100619.86;;;10.73;72.45
68380;BME280;57711;53.196;19.638;2022-10-31T03:52:35;100617.95;;;10.79;72.34
68380;BME280;57711;53.196;19.638;2022-10-31T03:55:09;100621.02;;;10.83;72.21
68380;BME280;57711;53.196;19.638;2022-10-31T04:00:15;100623.26;;;10.91;72.03
68380;BME280;57711;53.196;19.638;2022-10-31T04:03:06;100618.13;;;10.93;72.15
68380;BME280;57711;53.196;19.638;2022-10-31T04:05:37;100616.80;;;10.94;72.25
68380;BME280;57711;53.196;19.638;2022-10-31T04:08:08;100617.75;;;10.93;72.27
68380;BME280;57711;53.196;19.638;2022-10-31T04:10:37;100616.66;;;10.94;72.31
68380;BME280;57711;53.196;19.638;2022-10-31T04:13:08;100615.61;;;10.93;72.46
68380;BME280;57711;53.196;19.638;2022-10-31T04:15:46;100612.98;;;10.94;72.39
68380;BME280;57711;53.196;19.638;2022-10-31T04:18:16;100613.64;;;10.98;72.34
68380;BME280;57711;53.196;19.638;2022-10-31T04:20:43;100613.66;;;11.00;72.37
68380;BME280;57711;53.196;19.638;2022-10-31T04:23:20;100612.96;;;10.99;72.20
68380;BME280;57711;53.196;19.638;2022-10-31T04:25:49;100610.23;;;11.02;72.27
68380;BME280;57711;53.196;19.638;2022-10-31T04:28:16;100612.00;;;11.04;72.22
68380;BME280;57711;53.196;19.638;2022-10-31T04:30:44;100606.89;;;11.05;72.20
68380;BME280;57711;53.196;19.638;2022-10-31T04:33:12;100606.29;;;11.03;72.24
68380;BME280;57711;53.196;19.638;2022-10-31T04:35:39;100603.04;;;11.03;72.36
68380;BME280;57711;53.196;19.638;2022-10-31T04:38:07;100603.23;;;11.05;72.33
68380;BME280;57711;53.196;19.638;2022-10-31T04:40:34;100596.65;;;11.06;72.55
68380;BME280;57711;53.196;19.638;2022-10-31T04:43:20;100590.09;;;11.08;72.56
68380;BME280;57711;53.196;19.638;2022-10-31T04:45:47;100591.50;;;11.11;72.32
68380;BME280;57711;53.196;19.638;2022-10-31T04:48:15;100588.34;;;11.10;72.30
68380;BME280;57711;53.196;19.638;2022-10-31T04:50:43;100586.88;;;11.10;72.31
68380;BME280;57711;53.196;19.638;2022-10-31T04:53:12;100589.40;;;11.12;72.41
68380;BME280;57711;53.196;19.638;2022-10-31T04:55:58;100589.62;;;11.14;72.27
68380;BME280;57711;53.196;19.638;2022-10-31T04:58:35;100588.85;;;11.14;72.40
68380;BME280;57711;53.196;19.638;2022-10-31T05:01:05;100590.33;;;11.12;72.48
68380;BME280;57711;53.196;19.638;2022-10-31T05:03:32;100587.20;;;11.12;72.45
68380;BME280;57711;53.196;19.638;2022-10-31T05:05:59;100586.80;;;11.11;72.39
68380;BME280;57711;53.196;19.638;2022-10-31T05:08:27;100586.58;;;11.11;72.39
68380;BME280;57711;53.196;19.638;2022-10-31T05:10:54;100588.90;;;11.12;72.41
68380;BME280;57711;53.196;19.638;2022-10-31T05:13:26;100592.02;;;11.11;72.40
68380;BME280;57711;53.196;19.638;2022-10-31T05:16:11;100594.27;;;11.10;72.48
68380;BME280;57711;53.196;19.638;2022-10-31T05:19:01;100591.06;;;11.08;72.50
68380;BME280;57711;53.196;19.638;2022-10-31T05:22:01;100591.13;;;11.05;72.62
68380;BME280;57711;53.196;19.638;2022-10-31T05:24:28;100593.54;;;11.06;72.44
68380;BME280;57711;53.196;19.638;2022-10-31T05:26:55;100592.52;;;11.08;72.38
68380;BME280;57711;53.196;19.638;2022-10-31T05:29:22;100590.61;;;11.11;72.53
68380;BME280;57711;53.196;19.638;2022-10-31T05:31:50;100593.98;;;11.13;72.46
68380;BME280;57711;53.196;19.638;2022-10-31T05:34:40;100589.41;;;11.12;72.60
68380;BME280;57711;53.196;19.638;2022-10-31T05:37:30;100594.90;;;11.11;72.69
68380;BME280;57711;53.196;19.638;2022-10-31T05:39:59;100597.08;;;11.09;72.51
68380;BME280;57711;53.196;19.638;2022-10-31T05:42:34;100599.18;;;11.08;72.63
68380;BME280;57711;53.196;19.638;2022-10-31T05:45:01;100602.20;;;11.10;72.66
68380;BME280;57711;53.196;19.638;2022-10-31T05:47:54;100599.66;;;11.12;72.57
68380;BME280;57711;53.196;19.638;2022-10-31T05:50:43;100599.33;;;11.17;72.80
68380;BME280;57711;53.196;19.638;2022-10-31T05:53:11;100597.06;;;11.20;72.67
68380;BME280;57711;53.196;19.638;2022-10-31T05:55:39;100597.09;;;11.24;72.74
68380;BME280;57711;53.196;19.638;2022-10-31T05:58:12;100601.34;;;11.27;72.67
68380;BME280;57711;53.196;19.638;2022-10-31T06:00:46;100600.13;;;11.26;72.59
68380;BME280;57711;53.196;19.638;2022-10-31T06:03:14;100598.91;;;11.28;72.79
68380;BME280;57711;53.196;19.638;2022-10-31T06:05:54;100598.74;;;11.29;72.78
68380;BME280;57711;53.196;19.638;2022-10-31T06:08:24;100605.10;;;11.31;72.78
68380;BME280;57711;53.196;19.638;2022-10-31T06:10:51;100608.20;;;11.33;72.72
68380;BME280;57711;53.196;19.638;2022-10-31T06:13:29;100608.73;;;11.36;72.68
68380;BME280;57711;53.196;19.638;2022-10-31T06:16:07;100615.20;;;11.38;72.77
68380;BME280;57711;53.196;19.638;2022-10-31T06:18:36;100615.83;;;11.42;72.59
68380;BME280;57711;53.196;19.638;2022-10-31T06:21:03;100618.59;;;11.43;72.62
68380;BME280;57711;53.196;19.638;2022-10-31T06:23:30;100621.39;;;11.46;72.58
68380;BME280;57711;53.196;19.638;2022-10-31T06:26:17;100622.52;;;11.48;72.68
68380;BME280;57711;53.196;19.638;2022-10-31T06:28:44;100625.93;;;11.48;72.72
68380;BME280;57711;53.196;19.638;2022-10-31T06:31:23;100624.81;;;11.48;72.75
68380;BME280;57711;53.196;19.638;2022-10-31T06:33:51;100616.73;;;11.48;72.51
68380;BME280;57711;53.196;19.638;2022-10-31T06:36:18;100613.77;;;11.48;72.86
68380;BME280;57711;53.196;19.638;2022-10-31T06:38:46;100617.02;;;11.51;72.54
68380;BME280;57711;53.196;19.638;2022-10-31T06:41:15;100617.89;;;11.53;72.66
68380;BME280;57711;53.196;19.638;2022-10-31T06:43:46;100615.82;;;11.54;72.45
68380;BME280;57711;53.196;19.638;2022-10-31T06:46:48;100617.09;;;11.58;72.63
68380;BME280;57711;53.196;19.638;2022-10-31T06:49:34;100618.38;;;11.60;72.66
68380;BME280;57711;53.196;19.638;2022-10-31T06:52:04;100618.86;;;11.61;72.63
68380;BME280;57711;53.196;19.638;2022-10-31T06:54:32;100625.52;;;11.59;72.67
68380;BME280;57711;53.196;19.638;2022-10-31T06:56:59;100628.48;;;11.59;72.57
68380;BME280;57711;53.196;19.638;2022-10-31T06:59:27;100626.87;;;11.56;72.64
68380;BME280;57711;53.196;19.638;2022-10-31T07:02:14;100632.61;;;11.61;72.78
68380;BME280;57711;53.196;19.638;2022-10-31T07:04:42;100633.45;;;11.68;72.75
68380;BME280;57711;53.196;19.638;2022-10-31T07:07:12;100631.48;;;11.74;72.80
68380;BME280;57711;53.196;19.638;2022-10-31T07:09:39;100639.86;;;11.82;72.78
68380;BME280;57711;53.196;19.638;2022-10-31T07:12:08;100642.55;;;11.90;72.88
68380;BME280;57711;53.196;19.638;2022-10-31T07:14:37;100644.17;;;11.97;72.74
68380;BME280;57711;53.196;19.638;2022-10-31T07:17:05;100643.57;;;12.03;72.74
68380;BME280;57711;53.196;19.638;2022-10-31T07:19:35;100644.63;;;12.10;72.81
68380;BME280;57711;53.196;19.638;2022-10-31T07:22:02;100644.98;;;12.16;72.73
68380;BME280;57711;53.196;19.638;2022-10-31T07:24:29;100650.50;;;12.21;72.78
68380;BME280;57711;53.196;19.638;2022-10-31T07:26:57;100652.74;;;12.28;72.79
68380;BME280;57711;53.196;19.638;2022-10-31T07:29:25;100653.51;;;12.36;72.80
68380;BME280;57711;53.196;19.638;2022-10-31T07:31:52;100655.75;;;12.43;72.77
68380;BME280;57711;53.196;19.638;2022-10-31T07:34:23;100659.60;;;12.53;72.69
68380;BME280;57711;53.196;19.638;2022-10-31T07:37:29;100658.13;;;12.63;72.68
68380;BME280;57711;53.196;19.638;2022-10-31T07:39:57;100659.67;;;12.70;72.63
68380;BME280;57711;53.196;19.638;2022-10-31T07:42:25;100657.98;;;12.75;72.80
68380;BME280;57711;53.196;19.638;2022-10-31T07:44:52;100661.23;;;12.79;72.78
68380;BME280;57711;53.196;19.638;2022-10-31T07:47:51;100664.34;;;12.84;72.96
68380;BME280;57711;53.196;19.638;2022-10-31T07:50:37;100666.70;;;12.92;73.01
68380;BME280;57711;53.196;19.638;2022-10-31T07:53:30;100665.64;;;13.00;72.62
68380;BME280;57711;53.196;19.638;2022-10-31T07:56:10;100664.95;;;13.07;72.63
68380;BME280;57711;53.196;19.638;2022-10-31T07:58:37;100655.61;;;13.14;72.69
68380;BME280;57711;53.196;19.638;2022-10-31T08:01:04;100659.05;;;13.22;72.74
68380;BME280;57711;53.196;19.638;2022-10-31T08:03:37;100655.23;;;13.30;72.58
68380;BME280;57711;53.196;19.638;2022-10-31T08:06:25;100651.66;;;13.37;72.69
68380;BME280;57711;53.196;19.638;2022-10-31T08:08:54;100651.74;;;13.44;72.59
68380;BME280;57711;53.196;19.638;2022-10-31T08:11:22;100651.48;;;13.47;72.69
68380;BME280;57711;53.196;19.638;2022-10-31T08:13:49;100649.86;;;13.50;72.72
68380;BME280;57711;53.196;19.638;2022-10-31T08:16:17;100646.86;;;13.57;72.66
68380;BME280;57711;53.196;19.638;2022-10-31T08:18:56;100644.73;;;13.64;72.55
68380;BME280;57711;53.196;19.638;2022-10-31T08:21:23;100646.63;;;13.71;72.53
68380;BME280;57711;53.196;19.638;2022-10-31T08:23:50;100650.86;;;13.76;72.41
68380;BME280;57711;53.196;19.638;2022-10-31T08:26:19;100650.18;;;13.83;72.67
68380;BME280;57711;53.196;19.638;2022-10-31T08:28:47;100653.61;;;13.92;72.77
68380;BME280;57711;53.196;19.638;2022-10-31T08:31:18;100650.73;;;14.02;72.69
68380;BME280;57711;53.196;19.638;2022-10-31T08:33:45;100649.73;;;14.08;72.74
68380;BME280;57711;53.196;19.638;2022-10-31T08:36:19;100651.20;;;14.19;72.56
68380;BME280;57711;53.196;19.638;2022-10-31T08:39:13;100649.42;;;14.30;72.54
68380;BME280;57711;53.196;19.638;2022-10-31T08:41:40;100650.30;;;14.38;72.37
68380;BME280;57711;53.196;19.638;2022-10-31T08:44:10;100649.83;;;14.44;72.38
68380;BME280;57711;53.196;19.638;2022-10-31T08:46:38;100648.27;;;14.51;72.26
68380;BME280;57711;53.196;19.638;2022-10-31T08:49:05;100645.38;;;14.54;72.29
68380;BME280;57711;53.196;19.638;2022-10-31T08:51:33;100641.11;;;14.59;72.19
68380;BME280;57711;53.196;19.638;2022-10-31T08:54:00;100646.60;;;14.66;72.42
68380;BME280;57711;53.196;19.638;2022-10-31T08:57:03;100649.64;;;14.74;72.15
68380;BME280;57711;53.196;19.638;2022-10-31T08:59:42;100653.63;;;14.79;72.22
68380;BME280;57711;53.196;19.638;2022-10-31T09:02:23;100659.90;;;14.86;72.16
68380;BME280;57711;53.196;19.638;2022-10-31T09:04:53;100661.17;;;14.89;72.21
68380;BME280;57711;53.196;19.638;2022-10-31T09:07:21;100663.20;;;14.95;72.17
68380;BME280;57711;53.196;19.638;2022-10-31T09:09:48;100662.48;;;14.98;72.24
68380;BME280;57711;53.196;19.638;2022-10-31T09:12:16;100665.10;;;15.01;72.23
68380;BME280;57711;53.196;19.638;2022-10-31T09:15:06;100665.09;;;15.03;72.13
68380;BME280;57711;53.196;19.638;2022-10-31T09:17:47;100668.59;;;15.08;72.17
68380;BME280;57711;53.196;19.638;2022-10-31T09:20:29;100670.12;;;15.18;72.34
68380;BME280;57711;53.196;19.638;2022-10-31T09:23:05;100669.13;;;15.26;72.26
68380;BME280;57711;53.196;19.638;2022-10-31T09:25:34;100671.23;;;15.34;72.23
68380;BME280;57711;53.196;19.638;2022-10-31T09:28:28;100671.02;;;15.41;72.22
68380;BME280;57711;53.196;19.638;2022-10-31T09:30:58;100671.80;;;15.47;71.98
68380;BME280;57711;53.196;19.638;2022-10-31T09:33:44;100669.88;;;15.52;72.05
68380;BME280;57711;53.196;19.638;2022-10-31T09:36:40;100669.48;;;15.61;72.16
68380;BME280;57711;53.196;19.638;2022-10-31T09:39:11;100668.77;;;15.68;71.96
68380;BME280;57711;53.196;19.638;2022-10-31T09:50:44;100669.88;;;15.98;71.81
68380;BME280;57711;53.196;19.638;2022-10-31T09:53:48;100670.35;;;16.04;71.97
68380;BME280;57711;53.196;19.638;2022-10-31T09:56:21;100667.18;;;16.06;71.69
68380;BME280;57711;53.196;19.638;2022-10-31T09:58:55;100666.49;;;16.06;71.82
68380;BME280;57711;53.196;19.638;2022-10-31T10:04:32;100661.48;;;16.15;71.96
68380;BME280;57711;53.196;19.638;2022-10-31T10:07:16;100656.66;;;16.24;71.90
68380;BME280;57711;53.196;19.638;2022-10-31T10:18:43;100651.55;;;16.30;71.75
68380;BME280;57711;53.196;19.638;2022-10-31T10:27:46;100645.73;;;16.48;71.93
68380;BME280;57711;53.196;19.638;2022-10-31T10:30:04;100644.52;;;16.54;71.85
68380;BME280;57711;53.196;19.638;2022-10-31T10:32:47;100643.20;;;16.61;71.70
68380;BME280;57711;53.196;19.638;2022-10-31T10:35:38;100640.98;;;16.65;71.52
68380;BME280;57711;53.196;19.638;2022-10-31T10:40:52;100640.77;;;16.74;71.65
68380;BME280;57711;53.196;19.638;2022-10-31T10:43:24;100642.72;;;16.76;71.66
68380;BME280;57711;53.196;19.638;2022-10-31T10:49:15;100641.84;;;16.66;71.41
68380;BME280;57711;53.196;19.638;2022-10-31T10:59:48;100650.30;;;16.56;71.29
68380;BME280;57711;53.196;19.638;2022-10-31T11:02:23;100653.14;;;16.52;71.39
68380;BME280;57711;53.196;19.638;2022-10-31T11:04:53;100654.55;;;16.53;71.36
68380;BME280;57711;53.196;19.638;2022-10-31T11:07:21;100651.92;;;16.56;71.60
68380;BME280;57711;53.196;19.638;2022-10-31T11:09:49;100656.48;;;16.60;71.39
68380;BME280;57711;53.196;19.638;2022-10-31T11:12:20;100660.66;;;16.59;71.46
68380;BME280;57711;53.196;19.638;2022-10-31T11:17:29;100657.90;;;16.52;71.26
68380;BME280;57711;53.196;19.638;2022-10-31T11:22:48;100653.15;;;16.54;71.46
68380;BME280;57711;53.196;19.638;2022-10-31T11:27:46;100653.08;;;16.51;71.33
68380;BME280;57711;53.196;19.638;2022-10-31T11:30:15;100652.59;;;16.52;71.45
68380;BME280;57711;53.196;19.638;2022-10-31T11:32:50;100652.31;;;16.52;71.29
68380;BME280;57711;53.196;19.638;2022-10-31T11:35:22;100648.95;;;16.45;71.30
68380;BME280;57711;53.196;19.638;2022-10-31T11:37:52;100649.58;;;16.41;71.27
68380;BME280;57711;53.196;19.638;2022-10-31T11:40:25;100645.84;;;16.40;71.24
68380;BME280;57711;53.196;19.638;2022-10-31T11:42:55;100640.70;;;16.39;71.05
68380;BME280;57711;53.196;19.638;2022-10-31T11:45:28;100639.13;;;16.36;71.17
68380;BME280;57711;53.196;19.638;2022-10-31T11:47:57;100639.21;;;16.34;71.12
68380;BME280;57711;53.196;19.638;2022-10-31T11:50:34;100636.54;;;16.30;71.29
68380;BME280;57711;53.196;19.638;2022-10-31T11:53:03;100638.02;;;16.27;71.21
68380;BME280;57711;53.196;19.638;2022-10-31T11:55:38;100634.18;;;16.23;71.03
68380;BME280;57711;53.196;19.638;2022-10-31T11:58:25;100631.51;;;16.22;71.04
68380;BME280;57711;53.196;19.638;2022-10-31T12:00:54;100630.38;;;16.21;71.04
68380;BME280;57711;53.196;19.638;2022-10-31T12:05:58;100631.75;;;16.08;71.07
68380;BME280;57711;53.196;19.638;2022-10-31T12:08:30;100632.95;;;15.99;71.11
68380;BME280;57711;53.196;19.638;2022-10-31T12:13:34;100637.52;;;15.97;71.19
68380;BME280;57711;53.196;19.638;2022-10-31T12:16:39;100634.35;;;15.99;71.11
68380;BME280;57711;53.196;19.638;2022-10-31T12:28:00;100621.81;;;15.83;70.95
68380;BME280;57711;53.196;19.638;2022-10-31T12:39:24;100638.05;;;15.67;71.05
68380;BME280;57711;53.196;19.638;2022-10-31T12:41:52;100636.83;;;15.60;70.96
68380;BME280;57711;53.196;19.638;2022-10-31T12:58:26;100639.16;;;15.09;71.00
68380;BME280;57711;53.196;19.638;2022-10-31T13:01:20;100641.71;;;15.00;71.09
68380;BME280;57711;53.196;19.638;2022-10-31T13:04:01;100636.38;;;14.92;71.10
68380;BME280;57711;53.196;19.638;2022-10-31T13:06:34;100641.97;;;14.85;71.17
68380;BME280;57711;53.196;19.638;2022-10-31T13:09:13;100643.42;;;14.80;71.07
68380;BME280;57711;53.196;19.638;2022-10-31T13:11:46;100646.63;;;14.73;71.21
68380;BME280;57711;53.196;19.638;2022-10-31T13:16:51;100644.16;;;14.57;71.29
68380;BME280;57711;53.196;19.638;2022-10-31T13:19:25;100644.95;;;14.49;71.12
68380;BME280;57711;53.196;19.638;2022-10-31T13:24:36;100645.50;;;14.39;71.12
68380;BME280;57711;53.196;19.638;2022-10-31T13:27:17;100641.34;;;14.32;71.16
68380;BME280;57711;53.196;19.638;2022-10-31T13:32:30;100641.64;;;14.24;71.17
68380;BME280;57711;53.196;19.638;2022-10-31T13:35:05;100638.45;;;14.17;71.22
68380;BME280;57711;53.196;19.638;2022-10-31T13:37:39;100638.45;;;14.12;71.34
68380;BME280;57711;53.196;19.638;2022-10-31T13:45:52;100639.11;;;14.02;71.40
68380;BME280;57711;53.196;19.638;2022-10-31T13:48:38;100639.45;;;14.02;71.48
68380;BME280;57711;53.196;19.638;2022-10-31T13:51:10;100635.09;;;14.02;71.56
68380;BME280;57711;53.196;19.638;2022-10-31T13:58:36;100634.52;;;13.87;71.58
68380;BME280;57711;53.196;19.638;2022-10-31T14:03:41;100633.90;;;13.77;71.57
68380;BME280;57711;53.196;19.638;2022-10-31T14:09:39;100631.52;;;13.81;71.74
68380;BME280;57711;53.196;19.638;2022-10-31T14:12:24;100633.48;;;13.83;71.63
68380;BME280;57711;53.196;19.638;2022-10-31T14:14:57;100637.86;;;13.84;71.76
68380;BME280;57711;53.196;19.638;2022-10-31T14:17:31;100644.65;;;13.82;71.57
68380;BME280;57711;53.196;19.638;2022-10-31T14:22:39;100647.70;;;13.71;71.72
68380;BME280;57711;53.196;19.638;2022-10-31T14:25:34;100643.77;;;13.67;71.63
68380;BME280;57711;53.196;19.638;2022-10-31T14:28:18;100641.36;;;13.65;71.66
68380;BME280;57711;53.196;19.638;2022-10-31T14:30:57;100639.83;;;13.68;71.75
68380;BME280;57711;53.196;19.638;2022-10-31T14:33:27;100636.49;;;13.72;71.82
68380;BME280;57711;53.196;19.638;2022-10-31T14:36:10;100634.09;;;13.76;71.83
68380;BME280;57711;53.196;19.638;2022-10-31T14:52:12;100633.52;;;13.73;71.86
68380;BME280;57711;53.196;19.638;2022-10-31T14:54:45;100632.47;;;13.65;71.82
68380;BME280;57711;53.196;19.638;2022-10-31T14:57:18;100637.25;;;13.58;71.88
68380;BME280;57711;53.196;19.638;2022-10-31T14:59:49;100639.81;;;13.56;72.02
68380;BME280;57711;53.196;19.638;2022-10-31T15:02:31;100638.60;;;13.58;71.98
68380;BME280;57711;53.196;19.638;2022-10-31T15:05:08;100639.67;;;13.62;71.97
68380;BME280;57711;53.196;19.638;2022-10-31T15:07:35;100634.65;;;13.63;72.06
68380;BME280;57711;53.196;19.638;2022-10-31T15:10:21;100627.91;;;13.63;72.10
68380;BME280;57711;53.196;19.638;2022-10-31T15:12:48;100627.93;;;13.67;72.03
68380;BME280;57711;53.196;19.638;2022-10-31T15:15:24;100630.80;;;13.69;71.91
68380;BME280;57711;53.196;19.638;2022-10-31T15:17:58;100630.71;;;13.66;71.99
68380;BME280;57711;53.196;19.638;2022-10-31T15:20:28;100627.56;;;13.65;71.96
68380;BME280;57711;53.196;19.638;2022-10-31T15:22:57;100635.61;;;13.58;72.02
68380;BME280;57711;53.196;19.638;2022-10-31T15:25:30;100640.65;;;13.56;72.23
68380;BME280;57711;53.196;19.638;2022-10-31T15:27:59;100641.16;;;13.56;72.24
68380;BME280;57711;53.196;19.638;2022-10-31T15:30:29;100639.80;;;13.58;72.30
68380;BME280;57711;53.196;19.638;2022-10-31T15:32:56;100640.36;;;13.62;72.22
68380;BME280;57711;53.196;19.638;2022-10-31T15:35:27;100640.85;;;13.65;72.15
68380;BME280;57711;53.196;19.638;2022-10-31T15:37:55;100645.96;;;13.67;72.30
68380;BME280;57711;53.196;19.638;2022-10-31T15:40:25;100646.70;;;13.66;72.02
68380;BME280;57711;53.196;19.638;2022-10-31T15:43:03;100646.59;;;13.64;72.00
68380;BME280;57711;53.196;19.638;2022-10-31T15:45:31;100640.51;;;13.63;72.14
68380;BME280;57711;53.196;19.638;2022-10-31T15:48:16;100640.65;;;13.63;72.27
68380;BME280;57711;53.196;19.638;2022-10-31T15:50:55;100641.52;;;13.59;72.32
68380;BME280;57711;53.196;19.638;2022-10-31T15:53:48;100640.75;;;13.60;72.35
68380;BME280;57711;53.196;19.638;2022-10-31T15:56:20;100639.67;;;13.62;72.20